sensor_id;sensor_type;location;lat;lon;timestamp;temperature;humidity
9881;DHT22;4979;51.014;6.678;2023-07-13T00:01:12;18.50;99.90
9881;DHT22;4979;51.014;6.678;2023-07-13T00:03:38;18.50;99.90
9881;DHT22;4979;51.014;6.678;2023-07-13T00:06:07;18.50;99.90
9881;DHT22;4979;51.014;6.678;2023-07-13T00:08:34;18.40;99.90
9881;DHT22;4979;51.014;6.678;2023-07-13T00:11:01;18.50;99.90
9881;DHT22;4979;51.014;6.678;2023-07-13T00:13:28;18.60;99.90
9881;DHT22;4979;51.014;6.678;2023-07-13T00:15:54;18.40;99.90
9881;DHT22;4979;51.014;6.678;2023-07-13T00:18:21;18.50;99.90
9881;DHT22;4979;51.014;6.678;2023-07-13T00:20:47;18.40;99.90
9881;DHT22;4979;51.014;6.678;2023-07-13T00:23:12;18.30;99.90
9881;DHT22;4979;51.014;6.678;2023-07-13T00:25:38;18.40;99.90
9881;DHT22;4979;51.014;6.678;2023-07-13T00:28:03;18.30;99.90
9881;DHT22;4979;51.014;6.678;2023-07-13T00:30:29;18.30;99.90
9881;DHT22;4979;51.014;6.678;2023-07-13T00:32:55;18.30;99.90
9881;DHT22;4979;51.014;6.678;2023-07-13T00:35:21;18.30;99.90
9881;DHT22;4979;51.014;6.678;2023-07-13T00:37:46;18.20;99.90
9881;DHT22;4979;51.014;6.678;2023-07-13T00:40:13;18.20;99.90
9881;DHT22;4979;51.014;6.678;2023-07-13T00:42:39;18.20;99.90
9881;DHT22;4979;51.014;6.678;2023-07-13T00:47:37;18.10;99.90
9881;DHT22;4979;51.014;6.678;2023-07-13T00:50:04;18.10;99.90
9881;DHT22;4979;51.014;6.678;2023-07-13T00:52:31;18.10;99.90
9881;DHT22;4979;51.014;6.678;2023-07-13T00:54:57;18.10;99.90
9881;DHT22;4979;51.014;6.678;2023-07-13T00:57:23;18.00;99.90
9881;DHT22;4979;51.014;6.678;2023-07-13T00:59:54;18.00;99.90
9881;DHT22;4979;51.014;6.678;2023-07-13T01:02:20;17.90;99.90
9881;DHT22;4979;51.014;6.678;2023-07-13T01:04:47;18.00;99.90
9881;DHT22;4979;51.014;6.678;2023-07-13T01:07:13;18.00;99.90
9881;DHT22;4979;51.014;6.678;2023-07-13T01:09:39;18.00;99.90
9881;DHT22;4979;51.014;6.678;2023-07-13T01:12:05;17.90;99.90
9881;DHT22;4979;51.014;6.678;2023-07-13T01:14:30;17.80;99.90
9881;DHT22;4979;51.014;6.678;2023-07-13T01:16:56;17.80;99.90
9881;DHT22;4979;51.014;6.678;2023-07-13T01:19:42;17.70;99.90
9881;DHT22;4979;51.014;6.678;2023-07-13T01:22:15;17.60;99.90
9881;DHT22;4979;51.014;6.678;2023-07-13T01:24:43;17.60;99.90
9881;DHT22;4979;51.014;6.678;2023-07-13T01:27:10;17.60;99.90
9881;DHT22;4979;51.014;6.678;2023-07-13T01:29:38;17.60;99.90
9881;DHT22;4979;51.014;6.678;2023-07-13T01:32:09;17.60;99.90
9881;DHT22;4979;51.014;6.678;2023-07-13T01:34:35;17.60;99.90
9881;DHT22;4979;51.014;6.678;2023-07-13T01:37:00;17.50;99.90
9881;DHT22;4979;51.014;6.678;2023-07-13T01:39:26;17.50;99.90
9881;DHT22;4979;51.014;6.678;2023-07-13T01:41:52;17.50;99.90
9881;DHT22;4979;51.014;6.678;2023-07-13T01:44:17;17.40;99.90
9881;DHT22;4979;51.014;6.678;2023-07-13T01:46:43;17.40;99.90
9881;DHT22;4979;51.014;6.678;2023-07-13T01:49:08;17.40;99.90
9881;DHT22;4979;51.014;6.678;2023-07-13T01:51:34;17.40;99.90
9881;DHT22;4979;51.014;6.678;2023-07-13T01:53:59;17.30;99.90
9881;DHT22;4979;51.014;6.678;2023-07-13T01:56:25;17.40;99.90
9881;DHT22;4979;51.014;6.678;2023-07-13T01:58:51;17.40;99.90
9881;DHT22;4979;51.014;6.678;2023-07-13T02:01:17;17.30;99.90
9881;DHT22;4979;51.014;6.678;2023-07-13T02:03:43;17.30;99.90
9881;DHT22;4979;51.014;6.678;2023-07-13T02:06:08;17.30;99.90
9881;DHT22;4979;51.014;6.678;2023-07-13T02:08:34;17.30;99.90
9881;DHT22;4979;51.014;6.678;2023-07-13T02:11:00;17.30;99.90
9881;DHT22;4979;51.014;6.678;2023-07-13T02:13:25;17.20;99.90
9881;DHT22;4979;51.014;6.678;2023-07-13T02:15:52;17.20;99.90
9881;DHT22;4979;51.014;6.678;2023-07-13T02:18:17;17.20;99.90
9881;DHT22;4979;51.014;6.678;2023-07-13T02:20:43;17.20;99.90
9881;DHT22;4979;51.014;6.678;2023-07-13T02:23:10;17.20;99.90
9881;DHT22;4979;51.014;6.678;2023-07-13T02:25:35;17.10;99.90
9881;DHT22;4979;51.014;6.678;2023-07-13T02:28:01;17.10;99.90
9881;DHT22;4979;51.014;6.678;2023-07-13T02:30:27;17.10;99.90
9881;DHT22;4979;51.014;6.678;2023-07-13T02:32:55;17.00;99.90
9881;DHT22;4979;51.014;6.678;2023-07-13T02:35:21;17.00;99.90
9881;DHT22;4979;51.014;6.678;2023-07-13T02:37:46;17.00;99.90
9881;DHT22;4979;51.014;6.678;2023-07-13T02:40:12;17.00;99.90
9881;DHT22;4979;51.014;6.678;2023-07-13T02:42:38;17.00;99.90
9881;DHT22;4979;51.014;6.678;2023-07-13T02:45:05;16.90;99.90
9881;DHT22;4979;51.014;6.678;2023-07-13T02:47:32;16.90;99.90
9881;DHT22;4979;51.014;6.678;2023-07-13T02:49:57;16.90;99.90
9881;DHT22;4979;51.014;6.678;2023-07-13T02:52:23;16.90;99.90
9881;DHT22;4979;51.014;6.678;2023-07-13T02:54:48;16.90;99.90
9881;DHT22;4979;51.014;6.678;2023-07-13T02:57:14;16.80;99.90
9881;DHT22;4979;51.014;6.678;2023-07-13T02:59:40;16.80;99.90
9881;DHT22;4979;51.014;6.678;2023-07-13T03:02:05;16.80;99.90
9881;DHT22;4979;51.014;6.678;2023-07-13T03:04:31;16.80;99.90
9881;DHT22;4979;51.014;6.678;2023-07-13T03:06:56;16.80;99.90
9881;DHT22;4979;51.014;6.678;2023-07-13T03:09:24;16.70;99.90
9881;DHT22;4979;51.014;6.678;2023-07-13T03:11:53;16.70;99.90
9881;DHT22;4979;51.014;6.678;2023-07-13T03:14:19;16.70;99.90
9881;DHT22;4979;51.014;6.678;2023-07-13T03:16:44;16.60;99.90
9881;DHT22;4979;51.014;6.678;2023-07-13T03:19:10;16.60;99.90
9881;DHT22;4979;51.014;6.678;2023-07-13T03:21:35;16.50;99.90
9881;DHT22;4979;51.014;6.678;2023-07-13T03:24:01;16.50;99.90
9881;DHT22;4979;51.014;6.678;2023-07-13T03:26:26;16.50;99.90
9881;DHT22;4979;51.014;6.678;2023-07-13T03:28:52;16.40;99.90
9881;DHT22;4979;51.014;6.678;2023-07-13T03:31:20;16.40;99.90
9881;DHT22;4979;51.014;6.678;2023-07-13T03:33:46;16.40;99.90
9881;DHT22;4979;51.014;6.678;2023-07-13T03:36:19;16.40;99.90
9881;DHT22;4979;51.014;6.678;2023-07-13T03:38:54;16.40;99.90
9881;DHT22;4979;51.014;6.678;2023-07-13T03:41:21;16.40;99.90
9881;DHT22;4979;51.014;6.678;2023-07-13T03:43:47;16.40;99.90
9881;DHT22;4979;51.014;6.678;2023-07-13T03:46:14;16.30;99.90
9881;DHT22;4979;51.014;6.678;2023-07-13T03:48:44;16.40;99.90
9881;DHT22;4979;51.014;6.678;2023-07-13T03:51:10;16.30;99.90
9881;DHT22;4979;51.014;6.678;2023-07-13T03:53:39;16.40;99.90
9881;DHT22;4979;51.014;6.678;2023-07-13T03:56:05;16.30;99.90
9881;DHT22;4979;51.014;6.678;2023-07-13T04:00:56;16.40;99.90
9881;DHT22;4979;51.014;6.678;2023-07-13T04:03:23;16.40;99.90
9881;DHT22;4979;51.014;6.678;2023-07-13T04:05:48;16.30;99.90
9881;DHT22;4979;51.014;6.678;2023-07-13T04:08:14;16.30;99.90
9881;DHT22;4979;51.014;6.678;2023-07-13T04:10:40;16.30;99.90
9881;DHT22;4979;51.014;6.678;2023-07-13T04:13:06;16.30;99.90
9881;DHT22;4979;51.014;6.678;2023-07-13T04:15:32;16.30;99.90
9881;DHT22;4979;51.014;6.678;2023-07-13T04:17:58;16.40;99.90
9881;DHT22;4979;51.014;6.678;2023-07-13T04:20:25;16.50;99.90
9881;DHT22;4979;51.014;6.678;2023-07-13T04:22:51;16.40;99.90
9881;DHT22;4979;51.014;6.678;2023-07-13T04:25:18;16.40;99.90
9881;DHT22;4979;51.014;6.678;2023-07-13T04:27:44;16.40;99.90
9881;DHT22;4979;51.014;6.678;2023-07-13T04:30:10;16.40;99.90
9881;DHT22;4979;51.014;6.678;2023-07-13T04:32:35;16.40;99.90
9881;DHT22;4979;51.014;6.678;2023-07-13T04:35:01;16.40;99.90
9881;DHT22;4979;51.014;6.678;2023-07-13T04:37:26;16.50;99.90
9881;DHT22;4979;51.014;6.678;2023-07-13T04:39:52;16.60;99.90
9881;DHT22;4979;51.014;6.678;2023-07-13T04:42:18;16.70;99.90
9881;DHT22;4979;51.014;6.678;2023-07-13T04:44:50;16.80;99.90
9881;DHT22;4979;51.014;6.678;2023-07-13T04:47:16;17.00;99.90
9881;DHT22;4979;51.014;6.678;2023-07-13T04:49:42;16.90;99.90
9881;DHT22;4979;51.014;6.678;2023-07-13T04:52:08;17.00;99.90
9881;DHT22;4979;51.014;6.678;2023-07-13T04:54:34;17.10;99.90
9881;DHT22;4979;51.014;6.678;2023-07-13T04:57:00;17.20;99.90
9881;DHT22;4979;51.014;6.678;2023-07-13T04:59:26;17.20;99.90
9881;DHT22;4979;51.014;6.678;2023-07-13T05:01:52;17.20;99.90
9881;DHT22;4979;51.014;6.678;2023-07-13T05:04:18;17.20;99.90
9881;DHT22;4979;51.014;6.678;2023-07-13T05:06:43;17.20;99.90
9881;DHT22;4979;51.014;6.678;2023-07-13T05:09:09;17.30;99.90
9881;DHT22;4979;51.014;6.678;2023-07-13T05:11:34;17.30;99.90
9881;DHT22;4979;51.014;6.678;2023-07-13T05:14:00;17.40;99.90
9881;DHT22;4979;51.014;6.678;2023-07-13T05:16:27;17.50;99.90
9881;DHT22;4979;51.014;6.678;2023-07-13T05:18:53;17.60;99.90
9881;DHT22;4979;51.014;6.678;2023-07-13T05:21:18;17.60;99.90
9881;DHT22;4979;51.014;6.678;2023-07-13T05:23:44;17.60;99.90
9881;DHT22;4979;51.014;6.678;2023-07-13T05:26:10;17.80;99.90
9881;DHT22;4979;51.014;6.678;2023-07-13T05:28:36;17.90;99.90
9881;DHT22;4979;51.014;6.678;2023-07-13T05:31:02;17.90;99.90
9881;DHT22;4979;51.014;6.678;2023-07-13T05:33:28;18.00;99.90
9881;DHT22;4979;51.014;6.678;2023-07-13T05:35:54;17.90;99.90
9881;DHT22;4979;51.014;6.678;2023-07-13T05:38:19;18.00;99.90
9881;DHT22;4979;51.014;6.678;2023-07-13T05:40:46;18.20;99.90
9881;DHT22;4979;51.014;6.678;2023-07-13T05:43:12;18.20;99.90
9881;DHT22;4979;51.014;6.678;2023-07-13T05:45:38;18.10;99.90
9881;DHT22;4979;51.014;6.678;2023-07-13T05:48:04;18.30;99.90
9881;DHT22;4979;51.014;6.678;2023-07-13T05:50:30;18.30;99.90
9881;DHT22;4979;51.014;6.678;2023-07-13T05:52:55;18.40;99.90
9881;DHT22;4979;51.014;6.678;2023-07-13T05:55:22;18.20;99.90
9881;DHT22;4979;51.014;6.678;2023-07-13T05:57:47;18.40;99.90
9881;DHT22;4979;51.014;6.678;2023-07-13T06:00:13;18.20;99.90
9881;DHT22;4979;51.014;6.678;2023-07-13T06:02:39;18.30;99.90
9881;DHT22;4979;51.014;6.678;2023-07-13T06:05:05;18.40;99.90
9881;DHT22;4979;51.014;6.678;2023-07-13T06:07:31;18.30;99.90
9881;DHT22;4979;51.014;6.678;2023-07-13T06:09:56;18.20;99.90
9881;DHT22;4979;51.014;6.678;2023-07-13T06:12:22;18.30;99.90
9881;DHT22;4979;51.014;6.678;2023-07-13T06:14:48;18.30;99.90
9881;DHT22;4979;51.014;6.678;2023-07-13T06:17:13;18.40;99.90
9881;DHT22;4979;51.014;6.678;2023-07-13T06:19:39;18.20;99.90
9881;DHT22;4979;51.014;6.678;2023-07-13T06:22:05;18.40;99.90
9881;DHT22;4979;51.014;6.678;2023-07-13T06:24:30;18.30;99.90
9881;DHT22;4979;51.014;6.678;2023-07-13T06:26:56;18.40;99.90
9881;DHT22;4979;51.014;6.678;2023-07-13T06:29:22;18.60;99.90
9881;DHT22;4979;51.014;6.678;2023-07-13T06:31:47;18.70;99.90
9881;DHT22;4979;51.014;6.678;2023-07-13T06:34:13;18.70;99.90
9881;DHT22;4979;51.014;6.678;2023-07-13T06:36:38;18.70;99.90
9881;DHT22;4979;51.014;6.678;2023-07-13T06:39:04;18.70;99.90
9881;DHT22;4979;51.014;6.678;2023-07-13T06:41:31;18.90;99.90
9881;DHT22;4979;51.014;6.678;2023-07-13T06:43:58;18.80;99.90
9881;DHT22;4979;51.014;6.678;2023-07-13T06:46:24;18.90;99.90
9881;DHT22;4979;51.014;6.678;2023-07-13T06:48:50;19.10;99.90
9881;DHT22;4979;51.014;6.678;2023-07-13T06:51:16;19.30;99.90
9881;DHT22;4979;51.014;6.678;2023-07-13T06:53:41;19.60;99.90
9881;DHT22;4979;51.014;6.678;2023-07-13T06:56:09;19.50;99.90
9881;DHT22;4979;51.014;6.678;2023-07-13T06:58:36;19.70;99.90
9881;DHT22;4979;51.014;6.678;2023-07-13T07:01:02;19.70;99.90
9881;DHT22;4979;51.014;6.678;2023-07-13T07:03:28;19.70;99.90
9881;DHT22;4979;51.014;6.678;2023-07-13T07:05:53;19.80;99.90
9881;DHT22;4979;51.014;6.678;2023-07-13T07:08:19;19.70;99.90
9881;DHT22;4979;51.014;6.678;2023-07-13T07:10:45;19.80;99.90
9881;DHT22;4979;51.014;6.678;2023-07-13T07:13:11;19.90;99.90
9881;DHT22;4979;51.014;6.678;2023-07-13T07:15:37;19.80;99.90
9881;DHT22;4979;51.014;6.678;2023-07-13T07:18:03;19.90;99.90
9881;DHT22;4979;51.014;6.678;2023-07-13T07:20:28;20.00;99.90
9881;DHT22;4979;51.014;6.678;2023-07-13T07:22:55;20.20;99.90
9881;DHT22;4979;51.014;6.678;2023-07-13T07:25:21;20.00;99.90
9881;DHT22;4979;51.014;6.678;2023-07-13T07:27:47;20.20;99.90
9881;DHT22;4979;51.014;6.678;2023-07-13T07:30:12;20.30;99.90
9881;DHT22;4979;51.014;6.678;2023-07-13T07:32:38;20.10;99.90
9881;DHT22;4979;51.014;6.678;2023-07-13T07:35:04;20.00;99.90
9881;DHT22;4979;51.014;6.678;2023-07-13T07:37:30;20.10;99.90
9881;DHT22;4979;51.014;6.678;2023-07-13T07:39:55;20.00;99.90
9881;DHT22;4979;51.014;6.678;2023-07-13T07:42:21;19.90;99.90
9881;DHT22;4979;51.014;6.678;2023-07-13T07:44:46;19.80;99.90
9881;DHT22;4979;51.014;6.678;2023-07-13T07:47:12;19.90;99.90
9881;DHT22;4979;51.014;6.678;2023-07-13T07:49:38;20.00;99.90
9881;DHT22;4979;51.014;6.678;2023-07-13T07:52:03;20.00;99.90
9881;DHT22;4979;51.014;6.678;2023-07-13T07:54:29;20.10;99.90
9881;DHT22;4979;51.014;6.678;2023-07-13T07:56:55;20.20;99.90
9881;DHT22;4979;51.014;6.678;2023-07-13T07:59:21;20.00;99.90
9881;DHT22;4979;51.014;6.678;2023-07-13T08:01:46;20.30;99.90
9881;DHT22;4979;51.014;6.678;2023-07-13T08:04:13;20.50;99.90
9881;DHT22;4979;51.014;6.678;2023-07-13T08:06:39;20.60;99.90
9881;DHT22;4979;51.014;6.678;2023-07-13T08:09:04;20.60;99.90
9881;DHT22;4979;51.014;6.678;2023-07-13T08:11:30;20.50;99.90
9881;DHT22;4979;51.014;6.678;2023-07-13T08:13:56;20.80;99.90
9881;DHT22;4979;51.014;6.678;2023-07-13T08:16:22;21.10;99.90
9881;DHT22;4979;51.014;6.678;2023-07-13T08:18:48;21.30;99.90
9881;DHT22;4979;51.014;6.678;2023-07-13T08:21:13;21.70;99.90
9881;DHT22;4979;51.014;6.678;2023-07-13T08:23:39;21.70;99.90
9881;DHT22;4979;51.014;6.678;2023-07-13T08:26:05;22.10;99.90
9881;DHT22;4979;51.014;6.678;2023-07-13T08:28:31;21.80;99.90
9881;DHT22;4979;51.014;6.678;2023-07-13T08:31:05;21.90;99.90
9881;DHT22;4979;51.014;6.678;2023-07-13T08:33:33;22.20;99.90
9881;DHT22;4979;51.014;6.678;2023-07-13T08:35:59;22.10;99.90
9881;DHT22;4979;51.014;6.678;2023-07-13T08:38:25;21.90;99.90
9881;DHT22;4979;51.014;6.678;2023-07-13T08:40:56;21.80;99.90
9881;DHT22;4979;51.014;6.678;2023-07-13T08:43:35;21.60;99.90
9881;DHT22;4979;51.014;6.678;2023-07-13T08:48:49;21.50;99.90
9881;DHT22;4979;51.014;6.678;2023-07-13T08:51:43;21.70;99.90
9881;DHT22;4979;51.014;6.678;2023-07-13T08:54:23;22.20;99.90
9881;DHT22;4979;51.014;6.678;2023-07-13T08:56:50;22.20;99.90
9881;DHT22;4979;51.014;6.678;2023-07-13T08:59:20;22.20;99.90
9881;DHT22;4979;51.014;6.678;2023-07-13T09:04:23;21.70;99.90
9881;DHT22;4979;51.014;6.678;2023-07-13T09:12:47;22.40;99.90
9881;DHT22;4979;51.014;6.678;2023-07-13T09:17:51;22.60;99.90
9881;DHT22;4979;51.014;6.678;2023-07-13T09:20:34;22.80;99.90
9881;DHT22;4979;51.014;6.678;2023-07-13T09:23:10;22.90;99.90
9881;DHT22;4979;51.014;6.678;2023-07-13T09:25:40;22.70;99.90
9881;DHT22;4979;51.014;6.678;2023-07-13T09:33:38;23.30;99.90
9881;DHT22;4979;51.014;6.678;2023-07-13T09:36:25;23.40;99.90
9881;DHT22;4979;51.014;6.678;2023-07-13T09:39:09;23.60;99.90
9881;DHT22;4979;51.014;6.678;2023-07-13T09:42:07;23.60;99.90
9881;DHT22;4979;51.014;6.678;2023-07-13T09:44:49;23.40;99.90
9881;DHT22;4979;51.014;6.678;2023-07-13T09:47:22;23.30;99.90
9881;DHT22;4979;51.014;6.678;2023-07-13T09:50:00;23.10;99.90
9881;DHT22;4979;51.014;6.678;2023-07-13T09:52:27;22.80;99.90
9881;DHT22;4979;51.014;6.678;2023-07-13T09:54:55;23.10;99.90
9881;DHT22;4979;51.014;6.678;2023-07-13T09:57:27;22.90;99.90
9881;DHT22;4979;51.014;6.678;2023-07-13T09:59:54;22.90;99.90
9881;DHT22;4979;51.014;6.678;2023-07-13T10:02:36;23.10;99.90
9881;DHT22;4979;51.014;6.678;2023-07-13T10:05:07;23.20;99.90
9881;DHT22;4979;51.014;6.678;2023-07-13T10:07:43;23.30;99.90
9881;DHT22;4979;51.014;6.678;2023-07-13T10:10:23;23.30;99.90
9881;DHT22;4979;51.014;6.678;2023-07-13T10:12:50;23.50;99.90
9881;DHT22;4979;51.014;6.678;2023-07-13T10:15:21;24.10;99.90
9881;DHT22;4979;51.014;6.678;2023-07-13T10:17:48;24.20;99.90
9881;DHT22;4979;51.014;6.678;2023-07-13T10:20:16;24.00;99.90
9881;DHT22;4979;51.014;6.678;2023-07-13T10:23:02;23.80;99.90
9881;DHT22;4979;51.014;6.678;2023-07-13T10:25:31;23.80;99.90
9881;DHT22;4979;51.014;6.678;2023-07-13T10:28:26;24.30;99.90
9881;DHT22;4979;51.014;6.678;2023-07-13T10:30:53;24.40;99.90
9881;DHT22;4979;51.014;6.678;2023-07-13T10:33:21;24.30;99.90
9881;DHT22;4979;51.014;6.678;2023-07-13T10:35:51;24.40;99.90
9881;DHT22;4979;51.014;6.678;2023-07-13T10:38:23;24.30;99.90
9881;DHT22;4979;51.014;6.678;2023-07-13T10:40:56;23.50;99.90
9881;DHT22;4979;51.014;6.678;2023-07-13T10:46:11;24.10;99.90
9881;DHT22;4979;51.014;6.678;2023-07-13T10:48:40;23.70;99.90
9881;DHT22;4979;51.014;6.678;2023-07-13T10:51:13;23.70;99.90
9881;DHT22;4979;51.014;6.678;2023-07-13T10:53:44;23.70;99.90
9881;DHT22;4979;51.014;6.678;2023-07-13T10:56:27;24.10;99.90
9881;DHT22;4979;51.014;6.678;2023-07-13T10:59:11;23.80;99.90
9881;DHT22;4979;51.014;6.678;2023-07-13T11:01:46;25.80;99.90
9881;DHT22;4979;51.014;6.678;2023-07-13T11:04:14;24.70;99.90
9881;DHT22;4979;51.014;6.678;2023-07-13T11:06:42;24.30;99.90
9881;DHT22;4979;51.014;6.678;2023-07-13T11:12:09;24.10;99.90
9881;DHT22;4979;51.014;6.678;2023-07-13T11:20:22;23.40;99.90
9881;DHT22;4979;51.014;6.678;2023-07-13T11:25:45;23.70;99.90
9881;DHT22;4979;51.014;6.678;2023-07-13T11:36:06;23.90;99.90
9881;DHT22;4979;51.014;6.678;2023-07-13T11:38:46;24.10;99.90
9881;DHT22;4979;51.014;6.678;2023-07-13T11:41:24;23.70;99.90
9881;DHT22;4979;51.014;6.678;2023-07-13T11:44:01;24.10;99.90
9881;DHT22;4979;51.014;6.678;2023-07-13T11:46:31;24.50;99.90
9881;DHT22;4979;51.014;6.678;2023-07-13T11:48:57;24.50;99.90
9881;DHT22;4979;51.014;6.678;2023-07-13T11:51:31;24.50;99.90
9881;DHT22;4979;51.014;6.678;2023-07-13T11:54:15;24.20;99.90
9881;DHT22;4979;51.014;6.678;2023-07-13T11:56:42;24.10;99.90
9881;DHT22;4979;51.014;6.678;2023-07-13T11:59:12;23.90;99.90
9881;DHT22;4979;51.014;6.678;2023-07-13T12:01:45;24.00;99.90
9881;DHT22;4979;51.014;6.678;2023-07-13T12:04:26;23.90;99.90
9881;DHT22;4979;51.014;6.678;2023-07-13T12:06:58;24.80;99.90
9881;DHT22;4979;51.014;6.678;2023-07-13T12:09:29;24.70;99.90
9881;DHT22;4979;51.014;6.678;2023-07-13T12:12:00;25.20;99.90
9881;DHT22;4979;51.014;6.678;2023-07-13T12:14:33;24.70;99.90
9881;DHT22;4979;51.014;6.678;2023-07-13T12:16:59;24.80;99.90
9881;DHT22;4979;51.014;6.678;2023-07-13T12:19:27;25.00;99.90
9881;DHT22;4979;51.014;6.678;2023-07-13T12:22:00;24.80;99.90
9881;DHT22;4979;51.014;6.678;2023-07-13T12:24:28;24.90;99.90
9881;DHT22;4979;51.014;6.678;2023-07-13T12:27:01;24.50;99.90
9881;DHT22;4979;51.014;6.678;2023-07-13T12:29:28;25.20;99.90
9881;DHT22;4979;51.014;6.678;2023-07-13T12:31:54;25.20;99.90
9881;DHT22;4979;51.014;6.678;2023-07-13T12:34:28;25.20;99.90
9881;DHT22;4979;51.014;6.678;2023-07-13T12:36:55;25.00;99.90
9881;DHT22;4979;51.014;6.678;2023-07-13T12:39:33;25.10;99.90
9881;DHT22;4979;51.014;6.678;2023-07-13T12:42:33;24.90;99.90
9881;DHT22;4979;51.014;6.678;2023-07-13T12:45:15;24.80;99.90
9881;DHT22;4979;51.014;6.678;2023-07-13T12:47:50;25.00;99.90
9881;DHT22;4979;51.014;6.678;2023-07-13T12:50:21;25.40;99.90
9881;DHT22;4979;51.014;6.678;2023-07-13T12:52:54;24.90;99.90
9881;DHT22;4979;51.014;6.678;2023-07-13T12:55:24;25.10;99.90
9881;DHT22;4979;51.014;6.678;2023-07-13T12:57:57;25.00;99.90
9881;DHT22;4979;51.014;6.678;2023-07-13T13:00:36;25.30;99.90
9881;DHT22;4979;51.014;6.678;2023-07-13T13:05:38;25.10;99.90
9881;DHT22;4979;51.014;6.678;2023-07-13T13:08:04;25.20;99.90
9881;DHT22;4979;51.014;6.678;2023-07-13T13:10:37;25.30;99.90
9881;DHT22;4979;51.014;6.678;2023-07-13T13:13:07;25.50;99.90
9881;DHT22;4979;51.014;6.678;2023-07-13T13:15:36;25.90;99.90
9881;DHT22;4979;51.014;6.678;2023-07-13T13:18:02;25.50;99.90
9881;DHT22;4979;51.014;6.678;2023-07-13T13:20:32;25.80;99.90
9881;DHT22;4979;51.014;6.678;2023-07-13T13:22:58;25.80;99.90
9881;DHT22;4979;51.014;6.678;2023-07-13T13:25:28;25.80;99.90
9881;DHT22;4979;51.014;6.678;2023-07-13T13:27:57;26.00;99.90
9881;DHT22;4979;51.014;6.678;2023-07-13T13:30:27;25.60;99.90
9881;DHT22;4979;51.014;6.678;2023-07-13T13:32:55;26.00;99.90
9881;DHT22;4979;51.014;6.678;2023-07-13T13:35:21;25.50;99.90
9881;DHT22;4979;51.014;6.678;2023-07-13T13:37:47;25.30;99.90
9881;DHT22;4979;51.014;6.678;2023-07-13T13:40:21;25.50;99.90
9881;DHT22;4979;51.014;6.678;2023-07-13T13:42:54;25.60;99.90
9881;DHT22;4979;51.014;6.678;2023-07-13T13:45:21;25.60;99.90
9881;DHT22;4979;51.014;6.678;2023-07-13T13:47:48;25.70;99.90
9881;DHT22;4979;51.014;6.678;2023-07-13T13:50:21;25.80;99.90
9881;DHT22;4979;51.014;6.678;2023-07-13T13:52:59;26.10;99.90
9881;DHT22;4979;51.014;6.678;2023-07-13T13:55:25;26.00;99.90
9881;DHT22;4979;51.014;6.678;2023-07-13T13:57:51;26.00;99.90
9881;DHT22;4979;51.014;6.678;2023-07-13T14:00:17;25.50;99.90
9881;DHT22;4979;51.014;6.678;2023-07-13T14:02:48;25.60;99.90
9881;DHT22;4979;51.014;6.678;2023-07-13T14:05:20;25.50;99.90
9881;DHT22;4979;51.014;6.678;2023-07-13T14:07:46;25.50;99.90
9881;DHT22;4979;51.014;6.678;2023-07-13T14:10:14;26.00;99.90
9881;DHT22;4979;51.014;6.678;2023-07-13T14:12:42;25.70;99.90
9881;DHT22;4979;51.014;6.678;2023-07-13T14:15:21;25.50;99.90
9881;DHT22;4979;51.014;6.678;2023-07-13T14:17:47;25.40;99.90
9881;DHT22;4979;51.014;6.678;2023-07-13T14:20:16;25.50;99.90
9881;DHT22;4979;51.014;6.678;2023-07-13T14:22:43;25.20;99.90
9881;DHT22;4979;51.014;6.678;2023-07-13T14:25:16;25.20;99.90
9881;DHT22;4979;51.014;6.678;2023-07-13T14:27:43;25.20;99.90
9881;DHT22;4979;51.014;6.678;2023-07-13T14:30:17;25.60;99.90
9881;DHT22;4979;51.014;6.678;2023-07-13T14:32:43;25.70;99.90
9881;DHT22;4979;51.014;6.678;2023-07-13T14:35:13;25.60;99.90
9881;DHT22;4979;51.014;6.678;2023-07-13T14:37:40;26.00;99.90
9881;DHT22;4979;51.014;6.678;2023-07-13T14:40:14;25.90;99.90
9881;DHT22;4979;51.014;6.678;2023-07-13T14:42:39;26.00;99.90
9881;DHT22;4979;51.014;6.678;2023-07-13T14:45:11;26.10;99.90
9881;DHT22;4979;51.014;6.678;2023-07-13T14:47:37;24.20;98.10
9881;DHT22;4979;51.014;6.678;2023-07-13T14:50:02;26.30;99.90
9881;DHT22;4979;51.014;6.678;2023-07-13T14:52:30;26.00;99.90
9881;DHT22;4979;51.014;6.678;2023-07-13T14:54:56;25.60;99.90
9881;DHT22;4979;51.014;6.678;2023-07-13T14:57:21;25.70;99.90
9881;DHT22;4979;51.014;6.678;2023-07-13T14:59:47;25.00;99.90
9881;DHT22;4979;51.014;6.678;2023-07-13T15:02:17;24.90;99.90
9881;DHT22;4979;51.014;6.678;2023-07-13T15:04:44;24.80;99.90
9881;DHT22;4979;51.014;6.678;2023-07-13T15:07:11;24.90;99.90
9881;DHT22;4979;51.014;6.678;2023-07-13T15:09:36;24.70;99.90
9881;DHT22;4979;51.014;6.678;2023-07-13T15:12:02;24.40;99.90
9881;DHT22;4979;51.014;6.678;2023-07-13T15:14:28;24.20;99.90
9881;DHT22;4979;51.014;6.678;2023-07-13T15:16:55;24.20;99.90
9881;DHT22;4979;51.014;6.678;2023-07-13T15:19:22;24.10;99.90
9881;DHT22;4979;51.014;6.678;2023-07-13T15:21:49;24.20;99.90
9881;DHT22;4979;51.014;6.678;2023-07-13T15:24:14;24.10;99.90
9881;DHT22;4979;51.014;6.678;2023-07-13T15:26:41;24.00;99.90
9881;DHT22;4979;51.014;6.678;2023-07-13T15:29:11;23.80;99.90
9881;DHT22;4979;51.014;6.678;2023-07-13T15:31:36;23.40;99.90
9881;DHT22;4979;51.014;6.678;2023-07-13T15:34:16;23.50;99.90
9881;DHT22;4979;51.014;6.678;2023-07-13T15:36:43;23.30;99.90
9881;DHT22;4979;51.014;6.678;2023-07-13T15:39:14;23.00;99.90
9881;DHT22;4979;51.014;6.678;2023-07-13T15:41:45;22.90;99.90
9881;DHT22;4979;51.014;6.678;2023-07-13T15:44:29;23.00;99.90
9881;DHT22;4979;51.014;6.678;2023-07-13T15:46:55;22.90;99.90
9881;DHT22;4979;51.014;6.678;2023-07-13T15:49:21;22.70;99.90
9881;DHT22;4979;51.014;6.678;2023-07-13T15:51:47;22.80;99.90
9881;DHT22;4979;51.014;6.678;2023-07-13T15:54:16;22.80;99.90
9881;DHT22;4979;51.014;6.678;2023-07-13T15:56:42;22.80;99.90
9881;DHT22;4979;51.014;6.678;2023-07-13T15:59:11;22.80;99.90
9881;DHT22;4979;51.014;6.678;2023-07-13T16:01:40;22.90;99.90
9881;DHT22;4979;51.014;6.678;2023-07-13T16:04:07;22.70;99.90
9881;DHT22;4979;51.014;6.678;2023-07-13T16:06:38;22.70;99.90
9881;DHT22;4979;51.014;6.678;2023-07-13T16:09:06;22.50;99.90
9881;DHT22;4979;51.014;6.678;2023-07-13T16:11:34;22.50;99.90
9881;DHT22;4979;51.014;6.678;2023-07-13T16:14:01;22.40;99.90
9881;DHT22;4979;51.014;6.678;2023-07-13T16:16:29;22.30;99.90
9881;DHT22;4979;51.014;6.678;2023-07-13T16:19:00;22.50;99.90
9881;DHT22;4979;51.014;6.678;2023-07-13T16:21:29;22.30;99.90
9881;DHT22;4979;51.014;6.678;2023-07-13T16:23:56;22.40;99.90
9881;DHT22;4979;51.014;6.678;2023-07-13T16:28:52;22.40;99.90
9881;DHT22;4979;51.014;6.678;2023-07-13T16:31:26;22.60;99.90
9881;DHT22;4979;51.014;6.678;2023-07-13T16:33:52;22.70;99.90
9881;DHT22;4979;51.014;6.678;2023-07-13T16:36:18;22.60;99.90
9881;DHT22;4979;51.014;6.678;2023-07-13T16:38:44;22.70;99.90
9881;DHT22;4979;51.014;6.678;2023-07-13T16:41:10;22.70;99.90
9881;DHT22;4979;51.014;6.678;2023-07-13T16:43:36;22.80;99.90
9881;DHT22;4979;51.014;6.678;2023-07-13T16:46:02;22.80;99.90
9881;DHT22;4979;51.014;6.678;2023-07-13T16:48:30;22.70;99.90
9881;DHT22;4979;51.014;6.678;2023-07-13T16:50:57;22.60;99.90
9881;DHT22;4979;51.014;6.678;2023-07-13T16:53:32;22.60;99.90
9881;DHT22;4979;51.014;6.678;2023-07-13T16:55:59;22.80;99.90
9881;DHT22;4979;51.014;6.678;2023-07-13T16:58:28;22.80;99.90
9881;DHT22;4979;51.014;6.678;2023-07-13T17:00:56;22.80;99.90